Terminal Aerodrome Forecast
Issued by NWS Cleveland, OH

Home | Current Version | Previous Version | Text Only | Print | Product List | Glossary On
Versions: 1 2 3 4 5 6 7 8 9 10 11 12 13 14 15 16 17 18 19 20 21 22 23 24 25 26 27 28
000
FTUS41 KCLE 251700
TAFERI
TAF
KERI 251720Z 2518/2618 04012G24KT P6SM OVC050
     FM260400 06012G20KT 4SM -SN BR OVC025
     FM260700 06010G20KT 1 1/2SM -SN BR OVC015
     FM261300 06010G20KT 1/2SM SN FZFG OVC007
     FM261500 05011KT 1/2SM SN FZFG OVC003=

USA.gov is the U.S. government's official web portal to all federal, state and local government web resources and services.